createdAt,value
2022-10-20T00:00:28.628Z,-27.9
2022-10-20T00:02:29.849Z,-27.8
2022-10-20T00:04:30.949Z,-28.2
2022-10-20T00:06:32.326Z,-28.3
2022-10-20T00:08:33.746Z,-27.9
2022-10-20T00:10:34.863Z,-27.8
2022-10-20T00:12:36.284Z,-27.9
2022-10-20T00:14:37.136Z,-28
2022-10-20T00:18:40.030Z,-28
2022-10-20T00:20:41.859Z,-28.1
2022-10-20T00:22:43.025Z,-28.2
2022-10-20T00:24:44.311Z,-28
2022-10-20T00:26:45.960Z,-27.9
2022-10-20T00:28:47.436Z,-28.2
2022-10-20T00:32:50.358Z,-28.2
2022-10-20T00:34:51.893Z,-27.9
2022-10-20T00:36:52.895Z,-27.9
2022-10-20T00:38:54.606Z,-27.9
2022-10-20T00:39:38.462Z,-27.9
2022-10-20T00:43:40.734Z,-28
2022-10-20T00:45:42.052Z,-27.9
2022-10-20T00:47:43.604Z,-28
2022-10-20T00:49:45.285Z,-27.9
2022-10-20T00:51:47.232Z,-28
2022-10-20T00:53:48.449Z,-27.9
2022-10-20T00:55:49.446Z,-28.2
2022-10-20T00:59:52.447Z,-28
2022-10-20T01:01:54.324Z,-28
2022-10-20T01:03:55.394Z,-28.2
2022-10-20T01:05:57.132Z,-27.9
2022-10-20T01:12:02.327Z,-27.8
2022-10-20T01:14:03.991Z,-28
2022-10-20T01:16:05.625Z,-28.1
2022-10-20T01:18:07.194Z,-28.1
2022-10-20T01:20:08.569Z,-27.9
2022-10-20T01:22:09.860Z,-28.1
2022-10-20T01:26:13.705Z,-28.1
2022-10-20T01:28:14.934Z,-28
2022-10-20T01:30:16.680Z,-27.8
2022-10-20T01:32:17.727Z,-28
2022-10-20T01:38:22.637Z,-27.8
2022-10-20T01:40:24.327Z,-27.9
2022-10-20T01:42:25.663Z,-28
2022-10-20T01:44:26.776Z,-27.9
2022-10-20T01:46:28.701Z,-28.1
2022-10-20T01:48:30.504Z,-28
2022-10-20T01:50:31.649Z,-27.9
2022-10-20T01:52:33.401Z,-28.1
2022-10-20T01:54:34.759Z,-27.9
2022-10-20T01:56:35.992Z,-28.1
2022-10-20T01:58:37.443Z,-28
2022-10-20T02:00:38.814Z,-28.2
2022-10-20T02:02:40.075Z,-28.2
2022-10-20T02:04:41.507Z,-28.1
2022-10-20T02:06:42.922Z,-28.2
2022-10-20T02:08:44.603Z,-27.8
2022-10-20T02:10:45.828Z,-27.8
2022-10-20T02:12:46.900Z,-28.1
2022-10-20T02:14:48.846Z,-27.9
2022-10-20T02:16:49.885Z,-27.9
2022-10-20T02:18:51.705Z,-27.8
2022-10-20T02:20:53.271Z,-27.6
2022-10-20T02:24:56.326Z,-27.8
2022-10-20T02:26:57.648Z,-28
2022-10-20T02:28:59.046Z,-27.9
2022-10-20T02:31:00.492Z,-28
2022-10-20T02:37:05.041Z,-27.9
2022-10-20T02:39:06.595Z,-28
2022-10-20T02:41:08.326Z,-27.8
2022-10-20T02:43:09.766Z,-28.2
2022-10-20T02:45:11.182Z,-27.9
2022-10-20T02:47:13.067Z,-28.2
2022-10-20T02:49:14.301Z,-28.3
2022-10-20T02:51:16.250Z,-28
2022-10-20T02:53:17.476Z,-27.8
2022-10-20T02:57:20.468Z,-27.9
2022-10-20T02:59:21.881Z,-28.1
2022-10-20T03:01:23.315Z,-28
2022-10-20T03:03:24.638Z,-27.8
2022-10-20T03:05:26.136Z,-28.2
2022-10-20T03:07:28.065Z,-27.8
2022-10-20T03:09:30.251Z,-28.2
2022-10-20T03:11:31.905Z,-28.1
2022-10-20T03:13:33.317Z,-27.8
2022-10-20T03:19:38.133Z,-27.7
2022-10-20T03:21:39.316Z,-28.4
2022-10-20T03:23:40.355Z,-27.8
2022-10-20T03:25:42.297Z,-27.9
2022-10-20T03:27:43.432Z,-28
2022-10-20T03:29:44.518Z,-28.3
2022-10-20T03:31:46.444Z,-27.9
2022-10-20T03:33:47.687Z,-28.3
2022-10-20T03:35:49.567Z,-28
2022-10-20T03:37:50.769Z,-28
2022-10-20T03:39:51.960Z,-28
2022-10-20T03:41:52.955Z,-27.8
2022-10-20T03:43:54.148Z,-27.9
2022-10-20T03:45:55.777Z,-28.3
2022-10-20T03:47:57.235Z,-28.2
2022-10-20T03:49:58.679Z,-27.8
2022-10-20T03:52:00.136Z,-28.2
2022-10-20T03:56:02.562Z,-28.2
2022-10-20T03:58:03.632Z,-27.9
2022-10-20T04:00:05.340Z,-28.2
2022-10-20T04:02:06.516Z,-28.1
2022-10-20T04:04:08.205Z,-28.2
2022-10-20T04:06:09.588Z,-27.9
2022-10-20T04:08:11.566Z,-27.9
2022-10-20T04:10:13.009Z,-27.9
2022-10-20T04:12:14.511Z,-28.1
2022-10-20T04:16:17.102Z,-28.2
2022-10-20T04:18:18.716Z,-28.1
2022-10-20T04:20:19.949Z,-28.1
2022-10-20T04:22:21.433Z,-28
2022-10-20T04:26:24.122Z,-28.2
2022-10-20T04:28:25.259Z,-27.9
2022-10-20T04:32:28.173Z,-27.9
2022-10-20T04:34:29.794Z,-28.2
2022-10-20T04:36:31.751Z,-27.7
2022-10-20T04:38:33.644Z,-27.7
2022-10-20T04:42:36.875Z,-28
2022-10-20T04:44:37.992Z,-27.9
2022-10-20T04:46:39.912Z,-28
2022-10-20T04:48:41.792Z,-28
2022-10-20T04:50:43.288Z,-28.2
2022-10-20T04:52:44.207Z,-28.1
2022-10-20T04:54:45.710Z,-28.3
2022-10-20T04:58:48.244Z,-28
2022-10-20T05:00:49.476Z,-28
2022-10-20T05:02:50.980Z,-28
2022-10-20T05:04:52.705Z,-28
2022-10-20T05:06:54.494Z,-28
2022-10-20T05:08:55.596Z,-28.2
2022-10-20T05:10:57.200Z,-28.1
2022-10-20T05:12:58.303Z,-27.9
2022-10-20T05:15:00.120Z,-27.8
2022-10-20T05:17:02.474Z,-27.9
2022-10-20T05:19:03.630Z,-27.9
2022-10-20T05:21:08.706Z,-27.9
2022-10-20T05:23:05.708Z,-28
2022-10-20T05:25:24.739Z,-27.7
2022-10-20T05:27:09.148Z,-27.9
2022-10-20T05:31:12.685Z,-28
2022-10-20T05:33:14.453Z,-28.1
2022-10-20T05:35:15.821Z,-28
2022-10-20T05:37:17.148Z,-28
2022-10-20T05:43:22.193Z,-27.9
2022-10-20T05:45:23.847Z,-28.4
2022-10-20T05:47:25.578Z,-28
2022-10-20T05:49:27.369Z,-28
2022-10-20T05:51:28.416Z,-28.1
2022-10-20T05:53:29.375Z,-28
2022-10-20T05:55:30.749Z,-28.1
2022-10-20T05:57:32.291Z,-28
2022-10-20T05:59:33.514Z,-28
2022-10-20T06:01:35.106Z,-27.8
2022-10-20T06:03:36.704Z,-28.2
2022-10-20T06:05:38.091Z,-27.9
2022-10-20T06:07:39.534Z,-28
2022-10-20T06:09:40.873Z,-28.3
2022-10-20T06:11:41.889Z,-28.1
2022-10-20T06:13:44.965Z,-28.1
2022-10-20T06:15:44.893Z,-28.3
2022-10-20T06:19:47.582Z,-27.8
2022-10-20T06:21:49.281Z,-28
2022-10-20T06:23:50.424Z,-28
2022-10-20T06:25:51.746Z,-28.2
2022-10-20T06:27:53.137Z,-28
2022-10-20T06:29:54.276Z,-28.3
2022-10-20T06:31:55.705Z,-27.9
2022-10-20T06:33:57.176Z,-28.4
2022-10-20T06:35:58.310Z,-27.8
2022-10-20T06:40:01.108Z,-27.9
2022-10-20T06:42:02.624Z,-28.3
2022-10-20T06:44:04.231Z,-28.2
2022-10-20T06:46:05.523Z,-28.3
2022-10-20T06:50:08.407Z,-27.9
2022-10-20T06:54:10.973Z,-28
2022-10-20T06:56:11.969Z,-27.1
2022-10-20T06:58:13.458Z,-28.4
2022-10-20T07:00:14.779Z,-28
2022-10-20T07:02:15.672Z,-28.2
2022-10-20T07:04:16.665Z,-28
2022-10-20T07:06:18.017Z,-27.9
2022-10-20T07:08:19.658Z,-28.1
2022-10-20T07:12:22.570Z,-27.6
2022-10-20T07:14:24.074Z,-28.2
2022-10-20T07:16:25.332Z,-28.4
2022-10-20T07:18:26.764Z,-28.2
2022-10-20T07:24:30.422Z,-28.2
2022-10-20T07:25:14.244Z,-27.9
2022-10-20T07:29:17.666Z,-26.6
2022-10-20T07:31:19.177Z,-27
2022-10-20T07:33:20.269Z,-27
2022-10-20T07:35:21.850Z,-26
2022-10-20T07:37:23.313Z,-23.4
2022-10-20T07:39:25.059Z,-23.8
2022-10-20T07:41:26.080Z,-21.7
2022-10-20T07:43:27.391Z,-24.5
2022-10-20T07:45:29.055Z,-26.7
2022-10-20T07:47:31.600Z,-23.5
2022-10-20T07:49:43.762Z,-21.1
2022-10-20T07:51:33.411Z,-19.5
2022-10-20T07:55:38.884Z,-19
2022-10-20T07:57:37.505Z,-11.6
2022-10-20T08:01:39.965Z,-28.1
2022-10-20T08:03:40.912Z,-27.7
2022-10-20T08:05:42.231Z,-27.6
2022-10-20T08:07:43.366Z,-12.6
2022-10-20T08:17:49.786Z,9.5
2022-10-20T08:19:51.586Z,4.19
2022-10-20T08:21:53.027Z,-12.3
2022-10-20T08:23:54.847Z,-6.5
2022-10-20T08:25:56.164Z,-2.3
2022-10-20T08:30:00.501Z,7.3
2022-10-20T08:32:00.764Z,-7.6
2022-10-20T08:34:02.366Z,-2.6
2022-10-20T08:36:03.423Z,9
2022-10-20T08:38:04.602Z,5.6
2022-10-20T08:44:09.404Z,-14.4
2022-10-20T08:46:11.126Z,-14.3
2022-10-20T08:48:12.033Z,-11.4
2022-10-20T08:50:13.574Z,-20.5
2022-10-20T08:52:14.771Z,-10.3
2022-10-20T08:54:16.553Z,-6.7
2022-10-20T08:56:18.212Z,-6.8
2022-10-20T08:58:19.569Z,-6.9
2022-10-20T09:00:20.701Z,8.7
2022-10-20T09:02:22.402Z,18.2
2022-10-20T09:04:23.355Z,27.1
2022-10-20T09:06:24.636Z,31.7
2022-10-20T09:08:25.596Z,25.4
2022-10-20T09:10:26.990Z,25.2
2022-10-20T09:12:30.221Z,24.5
2022-10-20T09:14:29.565Z,23
2022-10-20T09:16:40.654Z,32.4
2022-10-20T09:18:32.742Z,34.8
2022-10-20T09:20:34.655Z,15.3
2022-10-20T09:22:36.193Z,15.4
2022-10-20T09:24:36.715Z,8.3
2022-10-20T09:26:54.571Z,10
2022-10-20T09:30:40.471Z,16
2022-10-20T09:32:46.806Z,18.4
2022-10-20T09:34:43.880Z,21.5
2022-10-20T09:36:45.069Z,23
2022-10-20T09:42:48.411Z,21
2022-10-20T09:44:49.432Z,17.7
2022-10-20T09:46:51.294Z,14.6
2022-10-20T09:48:52.700Z,17.29
2022-10-20T09:50:54.017Z,15.5
2022-10-20T09:52:55.495Z,17
2022-10-20T09:56:58.112Z,13.7
2022-10-20T09:58:59.603Z,14.1
2022-10-20T10:01:01.011Z,17.1
2022-10-20T10:03:02.841Z,15.3
2022-10-20T10:07:05.808Z,23.4
2022-10-20T10:09:06.836Z,22.8
2022-10-20T10:11:07.767Z,10.7
2022-10-20T10:13:09.619Z,16.5
2022-10-20T10:15:10.570Z,27
2022-10-20T10:21:14.466Z,38.4
2022-10-20T10:23:15.587Z,21.1
2022-10-20T10:25:17.391Z,32.4
2022-10-20T10:27:19.169Z,38.59
2022-10-20T10:29:20.388Z,73.1
2022-10-20T10:31:21.995Z,82.9
2022-10-20T10:33:23.204Z,82.8
2022-10-20T10:35:24.760Z,82.8
2022-10-20T10:39:26.901Z,82.7
2022-10-20T10:41:28.046Z,82.6
2022-10-20T10:43:29.493Z,82.4
2022-10-20T10:45:30.417Z,82.2
2022-10-20T10:49:34.296Z,81.3
2022-10-20T10:51:35.229Z,80.8
2022-10-20T10:55:48.130Z,79.8
2022-10-20T10:57:40.381Z,78.9
2022-10-20T10:59:41.341Z,78.9
2022-10-20T11:01:42.580Z,78.5
2022-10-20T11:03:44.244Z,77.9
2022-10-20T11:07:47.530Z,76.8
2022-10-20T11:11:50.378Z,8.39
2022-10-20T11:13:51.287Z,3.5
2022-10-20T11:15:52.445Z,-0.7
2022-10-20T11:17:54.244Z,0.3
2022-10-20T11:21:56.946Z,6.4
2022-10-20T11:23:58.007Z,1.9
2022-10-20T11:25:59.484Z,-2.7
2022-10-20T11:28:00.968Z,-4.69
2022-10-20T11:30:02.689Z,-4
2022-10-20T11:32:03.608Z,-3.9
2022-10-20T11:34:04.743Z,0.5
2022-10-20T11:36:05.809Z,14.3
2022-10-20T11:38:06.689Z,74.8
2022-10-20T11:40:08.587Z,73.6
2022-10-20T11:42:09.453Z,73.19
2022-10-20T11:44:11.037Z,72.19
2022-10-20T11:46:12.565Z,72.19
2022-10-20T11:48:13.994Z,71.69
2022-10-20T11:50:15.569Z,70.3
2022-10-20T11:52:16.897Z,70.3
2022-10-20T11:54:18.079Z,68.6
2022-10-20T11:56:19.521Z,67.3
2022-10-20T11:58:20.729Z,66.3
2022-10-20T12:00:22.498Z,65
2022-10-20T12:02:23.647Z,63.4
2022-10-20T12:04:25.434Z,62.8
2022-10-20T12:06:26.562Z,61.3
2022-10-20T12:08:30.178Z,59.8
2022-10-20T12:10:28.776Z,58.4
2022-10-20T12:12:30.405Z,56.9
2022-10-20T12:14:40.245Z,55.3
2022-10-20T12:16:41.611Z,52.6
2022-10-20T12:22:36.971Z,48.8
2022-10-20T12:24:38.407Z,46.9
2022-10-20T12:26:41.132Z,45.1
2022-10-20T12:28:40.659Z,42.7
2022-10-20T12:30:41.852Z,39.3
2022-10-20T12:32:43.529Z,40.9
2022-10-20T12:36:45.471Z,36.9
2022-10-20T12:38:47.239Z,36.8
2022-10-20T12:40:48.631Z,35.4
2022-10-20T12:42:49.778Z,34.09
2022-10-20T12:48:53.965Z,31
2022-10-20T12:50:55.160Z,-1.6
2022-10-20T12:52:56.358Z,-8.39
2022-10-20T12:54:57.240Z,-19.5
2022-10-20T12:56:58.523Z,-18.1
2022-10-20T12:58:59.944Z,-8.1
2022-10-20T13:01:01.671Z,-6.8
2022-10-20T13:03:03.295Z,-7.5
2022-10-20T13:05:04.197Z,-8.39
2022-10-20T13:07:05.639Z,-11.1
2022-10-20T13:09:07.169Z,-11.3
2022-10-20T13:11:08.878Z,-13.8
2022-10-20T13:13:10.376Z,-17.79
2022-10-20T13:15:11.331Z,-14.3
2022-10-20T13:17:12.862Z,-11.4
2022-10-20T13:19:14.715Z,-12.1
2022-10-20T13:21:15.858Z,-14.5
2022-10-20T13:23:17.249Z,-13.8
2022-10-20T13:25:18.727Z,-27.8
2022-10-20T13:27:19.748Z,-28.3
2022-10-20T13:29:21.406Z,-28
2022-10-20T13:31:22.279Z,-27.9
2022-10-20T13:33:34.205Z,-27.9
2022-10-20T13:35:24.367Z,-28.1
2022-10-20T13:37:25.409Z,-27.9
2022-10-20T13:39:26.734Z,-27.9
2022-10-20T13:41:28.205Z,-28
2022-10-20T13:43:29.776Z,-28.1
2022-10-20T13:45:31.237Z,-28.1
2022-10-20T13:47:32.282Z,-28
2022-10-20T13:51:34.319Z,-28.3
2022-10-20T13:53:35.416Z,-28.1
2022-10-20T13:55:36.887Z,-28.2
2022-10-20T13:57:37.800Z,-28.2
2022-10-20T13:59:40.584Z,-27.9
2022-10-20T14:01:40.434Z,-28
2022-10-20T14:03:41.394Z,-27.9
2022-10-20T14:05:43.009Z,-28.3
2022-10-20T14:07:44.590Z,-28
2022-10-20T14:09:47.472Z,-27.9
2022-10-20T14:10:29.780Z,-27.9
2022-10-20T14:14:32.247Z,-28.2
2022-10-20T14:18:34.548Z,-27.8
2022-10-20T14:20:35.689Z,-28.2
2022-10-20T14:22:36.849Z,-28.3
2022-10-20T14:24:37.918Z,-28
2022-10-20T14:28:41.103Z,-28
2022-10-20T14:30:42.743Z,-28
2022-10-20T14:32:44.548Z,-28.2
2022-10-20T14:34:45.924Z,-28.2
2022-10-20T14:36:47.217Z,-28.3
2022-10-20T14:38:48.219Z,-28.2
2022-10-20T14:40:49.252Z,-28.1
2022-10-20T14:44:51.614Z,-28.1
2022-10-20T14:46:52.748Z,-28
2022-10-20T14:48:53.851Z,-28
2022-10-20T14:50:55.535Z,-28
2022-10-20T14:52:56.793Z,-28
2022-10-20T14:54:58.596Z,-28.2
2022-10-20T14:56:59.768Z,-28.2
2022-10-20T14:59:00.952Z,-27.9
2022-10-20T15:01:02.340Z,-28
2022-10-20T15:03:03.996Z,-27.8
2022-10-20T15:05:05.392Z,-28.2
2022-10-20T15:07:06.603Z,-27.9
2022-10-20T15:13:11.399Z,-28.3
2022-10-20T15:15:12.338Z,-27.9
2022-10-20T15:17:13.305Z,-27.9
2022-10-20T15:19:14.320Z,-28.2
2022-10-20T15:21:15.678Z,-27.9
2022-10-20T15:23:16.947Z,-28.2
2022-10-20T15:25:18.569Z,-28
2022-10-20T15:27:19.736Z,-28.2
2022-10-20T15:29:20.805Z,-28
2022-10-20T15:31:21.733Z,-28
2022-10-20T15:33:22.899Z,-28.3
2022-10-20T15:35:24.509Z,-27.8
2022-10-20T15:37:25.810Z,-27.9
2022-10-20T15:39:27.003Z,-28
2022-10-20T15:41:28.396Z,-28
2022-10-20T15:43:29.552Z,-28.2
2022-10-20T15:45:30.883Z,-28.1
2022-10-20T15:49:33.306Z,-28.2
2022-10-20T15:51:34.601Z,-28.3
2022-10-20T15:53:35.746Z,-28.3
2022-10-20T15:55:37.262Z,-28.3
2022-10-20T15:57:38.798Z,-28.1
2022-10-20T15:59:40.313Z,-28
2022-10-20T16:01:41.399Z,-28.3
2022-10-20T16:03:43.359Z,-27.9
2022-10-20T16:05:44.948Z,-27.9
2022-10-20T16:11:49.140Z,-28
2022-10-20T16:13:50.737Z,-27.8
2022-10-20T16:15:52.488Z,-27.9
2022-10-20T16:17:53.850Z,-28
2022-10-20T16:19:55.748Z,-28.1
2022-10-20T16:21:57.409Z,-27.9
2022-10-20T16:23:58.313Z,-27.8
2022-10-20T16:25:59.388Z,-28.3
2022-10-20T16:28:01.041Z,-27.8
2022-10-20T16:30:02.085Z,-28.2
2022-10-20T16:32:03.163Z,-28.3
2022-10-20T16:38:08.047Z,-28.3
2022-10-20T16:40:09.354Z,-27.8
2022-10-20T16:42:10.965Z,-28.2
2022-10-20T16:44:12.505Z,-27.9
2022-10-20T16:46:13.876Z,-28.2
2022-10-20T16:48:14.862Z,-28
2022-10-20T16:52:17.414Z,-27.7
2022-10-20T16:54:18.838Z,-28.2
2022-10-20T16:56:20.911Z,-28.2
2022-10-20T16:58:22.075Z,-28.2
2022-10-20T17:02:24.121Z,-28
2022-10-20T17:04:25.846Z,-28
2022-10-20T17:06:26.855Z,-28
2022-10-20T17:08:28.147Z,-28.3
2022-10-20T17:10:29.274Z,-28.1
2022-10-20T17:12:31.105Z,-28.1
2022-10-20T17:14:32.032Z,-28
2022-10-20T17:16:33.246Z,-28
2022-10-20T17:18:34.446Z,-27.8
2022-10-20T17:20:35.483Z,-28.2
2022-10-20T17:24:38.415Z,-28
2022-10-20T17:26:39.776Z,-28
2022-10-20T17:28:41.262Z,-28.2
2022-10-20T17:30:42.882Z,-28
2022-10-20T17:36:48.155Z,-27.9
2022-10-20T17:38:49.709Z,-28.2
2022-10-20T17:40:50.820Z,-28.4
2022-10-20T17:42:51.951Z,-27.9
2022-10-20T17:44:53.285Z,-28
2022-10-20T17:46:54.676Z,-27.8
2022-10-20T17:48:56.176Z,-28.2
2022-10-20T17:50:57.187Z,-28.3
2022-10-20T17:52:59.013Z,-28
2022-10-20T17:55:00.142Z,-27.9
2022-10-20T17:57:01.484Z,-28.4
2022-10-20T17:59:02.451Z,-28
2022-10-20T18:01:03.447Z,-28.2
2022-10-20T18:03:05.166Z,-28.1
2022-10-20T18:05:06.787Z,-28.3
2022-10-20T18:07:08.036Z,-28.4
2022-10-20T18:09:09.304Z,-28.2
2022-10-20T18:13:12.130Z,-27.9
2022-10-20T18:15:13.156Z,-28
2022-10-20T18:17:14.173Z,-28.3
2022-10-20T18:19:15.243Z,-28.2
2022-10-20T18:23:18.946Z,-28.1
2022-10-20T18:25:20.464Z,-27.9
2022-10-20T18:27:22.051Z,-28.4
2022-10-20T18:29:23.214Z,-28
2022-10-20T18:35:28.047Z,-28.2
2022-10-20T18:37:29.750Z,-28.3
2022-10-20T18:39:30.937Z,-28
2022-10-20T18:41:32.588Z,-28.2
2022-10-20T18:43:33.933Z,-28.2
2022-10-20T18:45:35.432Z,-28.2
2022-10-20T18:47:44.486Z,-28.1
2022-10-20T18:49:38.120Z,-28.2
2022-10-20T18:51:39.956Z,-28.2
2022-10-20T18:53:41.835Z,-27.9
2022-10-20T18:55:43.013Z,-28
2022-10-20T19:01:46.409Z,-28.1
2022-10-20T19:03:47.530Z,-28
2022-10-20T19:05:48.805Z,-28.3
2022-10-20T19:07:50.438Z,-28.2
2022-10-20T19:09:53.403Z,-28.2
2022-10-20T19:11:53.611Z,-28
2022-10-20T19:17:59.374Z,-27.9
2022-10-20T19:19:59.651Z,-27.9
2022-10-20T19:24:03.239Z,-28.3
2022-10-20T19:26:04.736Z,-27.9
2022-10-20T19:28:06.266Z,-27.9
2022-10-20T19:30:07.681Z,-28
2022-10-20T19:32:08.810Z,-27.9
2022-10-20T19:34:09.835Z,-28.2
2022-10-20T19:36:10.994Z,-28.1
2022-10-20T19:38:11.943Z,-28.3
2022-10-20T19:40:13.639Z,-28.3
2022-10-20T19:42:15.267Z,-27.8
2022-10-20T19:44:17.021Z,-28.1
2022-10-20T19:48:19.757Z,-28
2022-10-20T19:50:21.415Z,-27.9
2022-10-20T19:52:23.292Z,-28.2
2022-10-20T19:54:25.085Z,-28.2
2022-10-20T20:00:28.990Z,-28.2
2022-10-20T20:02:30.195Z,-28
2022-10-20T20:04:31.529Z,-27.8
2022-10-20T20:06:33.310Z,-28
2022-10-20T20:08:34.704Z,-27.9
2022-10-20T20:10:36.423Z,-28
2022-10-20T20:12:37.424Z,-27.8
2022-10-20T20:14:39.005Z,-27.9
2022-10-20T20:16:40.789Z,-28.2
2022-10-20T20:18:42.263Z,-28.1
2022-10-20T20:20:44.168Z,-28.1
2022-10-20T20:22:45.441Z,-27.9
2022-10-20T20:24:47.209Z,-28.5
2022-10-20T20:26:48.122Z,-28.1
2022-10-20T20:28:49.032Z,-28
2022-10-20T20:30:49.983Z,-27.9
2022-10-20T20:32:53.577Z,-28.2
2022-10-20T20:36:53.613Z,-28
2022-10-20T20:38:55.162Z,-28.2
2022-10-20T20:40:56.098Z,-28.2
2022-10-20T20:42:57.009Z,-28.2
2022-10-20T20:47:00.047Z,-28.2
2022-10-20T20:49:01.125Z,-28.2
2022-10-20T20:51:02.387Z,-28.3
2022-10-20T20:53:03.375Z,-28.1
2022-10-20T20:57:49.372Z,-28
2022-10-20T20:59:51.105Z,-28.2
2022-10-20T21:01:52.380Z,-28.3
2022-10-20T21:03:54.093Z,-28.3
2022-10-20T21:05:55.320Z,-28.4
2022-10-20T21:07:56.988Z,-28.3
2022-10-20T21:09:58.024Z,-28.4
2022-10-20T21:11:58.982Z,-28.5
2022-10-20T21:14:00.075Z,-28.4
2022-10-20T21:16:01.994Z,-28
2022-10-20T21:18:03.097Z,-28.5
2022-10-20T21:20:05.063Z,-28.5
2022-10-20T21:24:07.430Z,-28.5
2022-10-20T21:26:08.722Z,-28.5
2022-10-20T21:28:09.779Z,-28.2
2022-10-20T21:30:11.266Z,-28.4
2022-10-20T21:32:12.439Z,-28.3
2022-10-20T21:36:14.442Z,-28.4
2022-10-20T21:38:16.325Z,-28.4
2022-10-20T21:40:17.855Z,-28.7
2022-10-20T21:42:19.082Z,-28.6
2022-10-20T21:44:19.961Z,-28.6
2022-10-20T21:46:21.233Z,-28.6
2022-10-20T21:52:25.656Z,-28.6
2022-10-20T21:54:26.710Z,-28.5
2022-10-20T21:56:28.283Z,-28.3
2022-10-20T21:58:30.116Z,-28.8
2022-10-20T22:00:31.963Z,-28.8
2022-10-20T22:02:32.949Z,-28.6
2022-10-20T22:04:34.375Z,-28.8
2022-10-20T22:06:35.683Z,-28.7
2022-10-20T22:08:36.809Z,-28.7
2022-10-20T22:12:39.082Z,-28.4
2022-10-20T22:14:42.511Z,-28.5
2022-10-20T22:16:42.601Z,-28.5
2022-10-20T22:18:44.334Z,-28.7
2022-10-20T22:22:46.813Z,-28.9
2022-10-20T22:24:48.009Z,-28.9
2022-10-20T22:26:49.018Z,-28.6
2022-10-20T22:28:50.399Z,-28.6
2022-10-20T22:32:52.541Z,-28.5
2022-10-20T22:34:54.403Z,-28.8
2022-10-20T22:36:56.182Z,-28.7
2022-10-20T22:38:57.963Z,-28.7
2022-10-20T22:43:00.586Z,-28.7
2022-10-20T22:45:01.960Z,-28.9
2022-10-20T22:49:04.508Z,-28.8
2022-10-20T22:51:05.962Z,-28.7
2022-10-20T22:53:07.720Z,-29
2022-10-20T22:55:09.233Z,-28.9
2022-10-20T23:01:13.401Z,-28.7
2022-10-20T23:03:14.875Z,-28.8
2022-10-20T23:05:16.684Z,-28.7
2022-10-20T23:07:18.155Z,-28.7
2022-10-20T23:09:27.366Z,-28.8
2022-10-20T23:11:20.540Z,-29
2022-10-20T23:13:22.288Z,-29
2022-10-20T23:15:23.708Z,-28.9
2022-10-20T23:17:24.862Z,-28.9
2022-10-20T23:19:26.489Z,-28.7
2022-10-20T23:21:27.830Z,-28.9
2022-10-20T23:23:28.884Z,-28.7
2022-10-20T23:25:30.152Z,-28.8
2022-10-20T23:27:31.798Z,-28.9
2022-10-20T23:29:32.814Z,-29
2022-10-20T23:31:33.841Z,-28.9
2022-10-20T23:33:35.620Z,-28.9
2022-10-20T23:35:36.576Z,-29.2
2022-10-20T23:37:38.095Z,-29.1
2022-10-20T23:39:39.175Z,-28.9
2022-10-20T23:41:40.203Z,-29
2022-10-20T23:43:41.036Z,-29.1
2022-10-20T23:45:42.206Z,-29.2
2022-10-20T23:47:43.514Z,-28.9
2022-10-20T23:49:45.357Z,-28.9
2022-10-20T23:51:46.344Z,-29
2022-10-20T23:53:47.859Z,-29
2022-10-20T23:55:48.846Z,-28.9
2022-10-20T23:57:49.961Z,-28.2
2022-10-20T23:59:50.879Z,-28.2
